createdAt,value
2019-03-23T00:02:12.724Z,11.10
2019-03-23T00:04:42.865Z,11.00
2019-03-23T00:07:13.031Z,11.00
2019-03-23T00:09:43.326Z,11.00
2019-03-23T00:12:13.528Z,10.90
2019-03-23T00:14:43.632Z,10.90
2019-03-23T00:17:13.830Z,10.80
2019-03-23T00:19:46.232Z,10.80
2019-03-23T00:22:17.493Z,10.80
2019-03-23T00:24:47.661Z,10.80
2019-03-23T00:27:17.766Z,10.70
2019-03-23T00:29:47.911Z,10.70
2019-03-23T00:32:17.936Z,10.70
2019-03-23T00:34:48.145Z,10.70
2019-03-23T00:37:18.272Z,10.70
2019-03-23T00:39:48.357Z,10.70
2019-03-23T00:42:18.539Z,10.70
2019-03-23T00:44:51.731Z,10.60
2019-03-23T00:47:21.852Z,10.60
2019-03-23T00:49:52.059Z,10.60
2019-03-23T00:52:22.142Z,10.60
2019-03-23T00:54:52.186Z,10.60
2019-03-23T00:57:22.457Z,10.60
2019-03-23T00:59:52.505Z,10.50
2019-03-23T01:02:22.749Z,10.50
2019-03-23T01:04:52.949Z,10.50
2019-03-23T01:07:24.327Z,10.50
2019-03-23T01:09:55.695Z,10.40
2019-03-23T01:12:25.920Z,10.40
2019-03-23T01:14:56.972Z,10.40
2019-03-23T01:17:27.177Z,10.30
2019-03-23T01:19:57.599Z,10.30
2019-03-23T01:22:27.880Z,10.30
2019-03-23T01:24:57.990Z,10.20
2019-03-23T01:27:28.110Z,10.20
2019-03-23T01:29:58.200Z,10.20
2019-03-23T01:32:28.460Z,10.10
2019-03-23T01:34:58.572Z,10.10
2019-03-23T01:37:30.456Z,10.00
2019-03-23T01:40:02.070Z,10.00
2019-03-23T01:42:32.094Z,10.00
2019-03-23T01:45:02.092Z,9.90
2019-03-23T01:47:32.292Z,9.90
2019-03-23T01:50:02.362Z,9.90
2019-03-23T01:52:39.572Z,9.90
2019-03-23T01:55:12.526Z,9.90
2019-03-23T01:57:42.609Z,9.80
2019-03-23T02:00:13.461Z,9.70
2019-03-23T02:02:47.649Z,9.70
2019-03-23T02:05:17.828Z,9.60
2019-03-23T02:07:51.919Z,9.60
2019-03-23T02:10:22.117Z,9.60
2019-03-23T02:12:52.302Z,9.60
2019-03-23T02:15:23.694Z,9.60
2019-03-23T02:17:53.867Z,9.60
2019-03-23T02:20:23.975Z,9.50
2019-03-23T02:22:55.147Z,9.50
2019-03-23T02:25:25.299Z,9.50
2019-03-23T02:27:57.915Z,9.50
2019-03-23T02:30:30.766Z,9.40
2019-03-23T02:33:00.890Z,9.40
2019-03-23T02:35:31.078Z,9.40
2019-03-23T02:38:01.226Z,9.30
2019-03-23T02:40:31.420Z,9.30
2019-03-23T02:43:01.573Z,9.20
2019-03-23T02:45:31.728Z,9.20
2019-03-23T02:48:01.936Z,9.20
2019-03-23T02:50:32.032Z,9.10
2019-03-23T02:53:02.165Z,9.10
2019-03-23T02:55:32.270Z,9.00
2019-03-23T02:58:02.466Z,8.90
2019-03-23T03:00:32.632Z,8.90
2019-03-23T03:03:02.717Z,8.90
2019-03-23T03:05:33.957Z,8.80
2019-03-23T03:08:04.089Z,8.80
2019-03-23T03:10:40.871Z,8.80
2019-03-23T03:13:11.206Z,8.80
2019-03-23T03:15:41.362Z,8.70
2019-03-23T03:18:11.557Z,8.70
2019-03-23T03:20:41.613Z,8.60
2019-03-23T03:23:11.721Z,8.60
2019-03-23T03:25:41.779Z,8.60
2019-03-23T03:28:11.784Z,8.60
2019-03-23T03:30:41.992Z,8.50
2019-03-23T03:33:12.012Z,8.50
2019-03-23T03:35:42.148Z,8.50
2019-03-23T03:38:14.029Z,8.50
2019-03-23T03:40:44.115Z,8.50
2019-03-23T03:43:14.239Z,8.50
2019-03-23T03:45:44.364Z,8.50
2019-03-23T03:48:14.498Z,8.50
2019-03-23T03:50:44.565Z,8.50
2019-03-23T03:53:14.678Z,8.50
2019-03-23T03:55:44.800Z,8.50
2019-03-23T03:58:14.901Z,8.50
2019-03-23T04:00:45.085Z,8.40
2019-03-23T04:03:15.221Z,8.40
2019-03-23T04:05:45.239Z,8.40
2019-03-23T04:08:15.319Z,8.40
2019-03-23T04:10:45.331Z,8.40
2019-03-23T04:13:15.528Z,8.30
2019-03-23T04:15:47.946Z,8.30
2019-03-23T04:18:18.154Z,8.30
2019-03-23T04:20:50.579Z,8.30
2019-03-23T04:23:20.705Z,8.30
2019-03-23T04:25:54.768Z,8.30
2019-03-23T04:28:25.013Z,8.30
2019-03-23T04:30:57.123Z,8.30
2019-03-23T04:33:27.421Z,8.30
2019-03-23T04:35:57.595Z,8.30
2019-03-23T04:38:29.286Z,8.30
2019-03-23T04:40:59.283Z,8.30
2019-03-23T04:43:29.409Z,8.30
2019-03-23T04:45:59.465Z,8.30
2019-03-23T04:48:31.327Z,8.30
2019-03-23T04:51:01.414Z,8.30
2019-03-23T04:53:33.527Z,8.30
2019-03-23T04:56:05.219Z,8.30
2019-03-23T04:58:35.323Z,8.40
2019-03-23T05:01:05.415Z,8.40
2019-03-23T05:03:35.494Z,8.30
2019-03-23T05:06:07.406Z,8.40
2019-03-23T05:08:38.683Z,8.40
2019-03-23T05:11:10.530Z,8.40
2019-03-23T05:13:40.564Z,8.40
2019-03-23T05:16:10.637Z,8.40
2019-03-23T05:18:42.562Z,8.40
2019-03-23T05:21:31.410Z,8.40
2019-03-23T05:24:01.602Z,8.40
2019-03-23T05:26:31.709Z,8.40
2019-03-23T05:29:01.910Z,8.40
2019-03-23T05:31:31.988Z,8.40
2019-03-23T05:34:02.071Z,8.40
2019-03-23T05:36:32.166Z,8.40
2019-03-23T05:39:05.372Z,8.40
2019-03-23T05:41:35.428Z,8.40
2019-03-23T05:44:06.796Z,8.50
2019-03-23T05:46:39.065Z,8.50
2019-03-23T05:49:09.231Z,8.60
2019-03-23T05:51:39.538Z,8.50
2019-03-23T05:54:09.933Z,8.60
2019-03-23T05:56:40.057Z,8.60
2019-03-23T05:59:10.200Z,8.70
2019-03-23T06:01:42.759Z,8.70
2019-03-23T06:04:15.635Z,8.80
2019-03-23T06:06:45.744Z,8.80
2019-03-23T06:09:31.084Z,8.90
2019-03-23T06:12:00.948Z,8.90
2019-03-23T06:14:30.851Z,9.00
2019-03-23T06:17:00.751Z,9.00
2019-03-23T06:19:30.737Z,9.10
2019-03-23T06:22:00.773Z,9.10
2019-03-23T06:24:30.665Z,9.20
2019-03-23T06:27:00.669Z,9.30
2019-03-23T06:29:32.571Z,9.40
2019-03-23T06:32:02.419Z,9.50
2019-03-23T06:34:32.205Z,9.50
2019-03-23T06:37:02.041Z,9.60
2019-03-23T06:39:32.131Z,9.70
2019-03-23T06:42:03.037Z,9.70
2019-03-23T06:44:32.952Z,9.80
2019-03-23T06:47:05.343Z,9.90
2019-03-23T06:49:36.537Z,10.00
2019-03-23T06:52:09.945Z,10.10
2019-03-23T06:54:44.896Z,10.20
2019-03-23T06:57:15.057Z,10.30
2019-03-23T06:59:45.256Z,10.40
2019-03-23T07:02:15.078Z,10.50
2019-03-23T07:04:44.959Z,10.60
2019-03-23T07:07:16.634Z,10.70
2019-03-23T07:09:46.772Z,10.80
2019-03-23T07:12:16.677Z,10.90
2019-03-23T07:14:46.576Z,11.00
2019-03-23T07:17:16.509Z,11.10
2019-03-23T07:19:46.435Z,11.20
2019-03-23T07:22:16.354Z,11.40
2019-03-23T07:24:46.257Z,11.40
2019-03-23T07:27:16.110Z,11.60
2019-03-23T07:29:46.014Z,11.70
2019-03-23T07:32:16.082Z,11.80
2019-03-23T07:34:45.988Z,11.90
2019-03-23T07:37:15.976Z,12.10
2019-03-23T07:39:47.105Z,12.20
2019-03-23T07:42:17.213Z,12.30
2019-03-23T07:44:47.126Z,12.40
2019-03-23T07:47:19.780Z,12.60
2019-03-23T07:49:49.796Z,12.70
2019-03-23T07:52:21.356Z,12.90
2019-03-23T07:55:13.120Z,13.00
2019-03-23T07:57:45.636Z,13.20
2019-03-23T08:00:40.920Z,13.30
2019-03-23T08:03:10.454Z,13.40
2019-03-23T08:05:40.380Z,13.60
2019-03-23T08:08:10.357Z,13.70
2019-03-23T08:10:40.268Z,13.90
2019-03-23T08:13:16.251Z,14.00
2019-03-23T08:15:46.171Z,14.20
2019-03-23T08:18:16.089Z,14.40
2019-03-23T08:20:45.932Z,14.50
2019-03-23T08:23:15.805Z,14.70
2019-03-23T08:25:45.739Z,14.80
2019-03-23T08:28:15.797Z,15.10
2019-03-23T08:30:46.239Z,15.20
2019-03-23T08:33:18.144Z,15.30
2019-03-23T08:35:48.097Z,15.50
2019-03-23T08:38:24.093Z,15.60
2019-03-23T08:40:54.318Z,15.80
2019-03-23T08:43:26.611Z,15.90
2019-03-23T08:45:56.612Z,16.00
2019-03-23T08:48:30.096Z,16.20
2019-03-23T08:51:01.549Z,16.40
2019-03-23T08:53:32.896Z,16.50
2019-03-23T08:56:06.210Z,16.60
2019-03-23T08:58:34.207Z,16.80
2019-03-23T09:01:06.376Z,16.90
2019-03-23T09:03:39.659Z,17.10
2019-03-23T09:06:10.709Z,17.20
2019-03-23T09:08:52.887Z,17.40
2019-03-23T09:11:22.775Z,17.50
2019-03-23T09:13:52.914Z,17.70
2019-03-23T09:16:24.902Z,17.80
2019-03-23T09:18:54.906Z,17.90
2019-03-23T09:21:26.898Z,18.00
2019-03-23T09:23:57.828Z,18.10
2019-03-23T09:26:27.675Z,18.20
2019-03-23T09:28:57.514Z,18.40
2019-03-23T09:31:27.426Z,18.50
2019-03-23T09:33:57.362Z,18.70
2019-03-23T09:36:27.351Z,18.80
2019-03-23T09:38:57.614Z,18.80
2019-03-23T09:41:27.552Z,18.90
2019-03-23T09:43:57.539Z,19.00
2019-03-23T09:46:28.013Z,19.10
2019-03-23T09:48:58.263Z,19.30
2019-03-23T09:51:29.378Z,19.40
2019-03-23T09:53:59.696Z,19.50
2019-03-23T09:56:29.964Z,19.60
2019-03-23T09:59:00.179Z,19.70
2019-03-23T10:01:30.241Z,19.70
2019-03-23T10:04:00.240Z,19.80
2019-03-23T10:06:30.371Z,19.90
2019-03-23T10:09:00.324Z,20.00
2019-03-23T10:11:30.287Z,20.10
2019-03-23T10:14:03.132Z,20.30
2019-03-23T10:16:33.225Z,20.30
2019-03-23T10:19:03.659Z,20.40
2019-03-23T10:21:33.779Z,20.50
2019-03-23T10:24:03.874Z,20.60
2019-03-23T10:26:33.969Z,20.70
2019-03-23T10:29:04.088Z,20.80
2019-03-23T10:31:50.207Z,20.80
2019-03-23T10:34:20.180Z,20.90
2019-03-23T10:36:50.134Z,21.00
2019-03-23T10:39:20.117Z,21.00
2019-03-23T10:41:50.234Z,21.00
2019-03-23T10:44:20.214Z,21.10
2019-03-23T10:46:50.228Z,21.20
2019-03-23T10:49:20.383Z,21.20
2019-03-23T10:51:50.382Z,21.30
2019-03-23T10:54:20.553Z,21.30
2019-03-23T10:56:51.005Z,21.40
2019-03-23T10:59:21.052Z,21.50
2019-03-23T11:01:50.944Z,21.50
2019-03-23T11:04:21.088Z,21.60
2019-03-23T11:06:52.151Z,21.60
2019-03-23T11:09:22.167Z,21.70
2019-03-23T11:11:52.176Z,21.80
2019-03-23T11:14:22.153Z,21.80
2019-03-23T11:16:52.861Z,21.80
2019-03-23T11:19:22.841Z,21.80
2019-03-23T11:21:53.058Z,21.80
2019-03-23T11:24:23.084Z,21.90
2019-03-23T11:26:53.059Z,22.00
2019-03-23T11:29:23.501Z,22.00
2019-03-23T11:31:53.679Z,22.10
2019-03-23T11:34:24.007Z,22.10
2019-03-23T11:36:54.396Z,22.20
2019-03-23T11:39:24.564Z,22.40
2019-03-23T11:41:54.551Z,23.00
2019-03-23T11:44:24.987Z,23.80
2019-03-23T11:46:55.155Z,24.70
2019-03-23T11:49:25.215Z,25.50
2019-03-23T11:51:55.238Z,26.20
2019-03-23T11:54:25.453Z,26.80
2019-03-23T11:56:56.353Z,27.40
2019-03-23T11:59:26.568Z,27.70
2019-03-23T12:01:56.660Z,28.00
2019-03-23T12:04:26.598Z,28.60
2019-03-23T12:07:03.893Z,29.20
2019-03-23T12:09:34.170Z,30.10
2019-03-23T12:12:04.305Z,30.90
2019-03-23T12:14:34.454Z,31.70
2019-03-23T12:17:04.554Z,32.80
2019-03-23T12:19:40.014Z,33.50
2019-03-23T12:22:08.324Z,33.80
2019-03-23T12:24:38.740Z,34.30
2019-03-23T12:27:09.344Z,34.80
2019-03-23T12:29:39.834Z,35.30
2019-03-23T12:32:10.818Z,35.60
2019-03-23T12:34:42.157Z,35.90
2019-03-23T12:37:12.316Z,36.40
2019-03-23T12:39:42.392Z,36.80
2019-03-23T12:42:16.076Z,37.00
2019-03-23T12:44:46.206Z,37.20
2019-03-23T12:47:16.370Z,37.70
2019-03-23T12:49:46.910Z,38.00
2019-03-23T12:52:17.319Z,38.00
2019-03-23T12:54:47.588Z,38.00
2019-03-23T12:57:18.094Z,37.70
2019-03-23T12:59:48.140Z,37.40
2019-03-23T13:02:18.345Z,37.40
2019-03-23T13:04:48.538Z,37.80
2019-03-23T13:07:19.056Z,38.00
2019-03-23T13:09:49.413Z,38.10
2019-03-23T13:12:19.818Z,38.00
2019-03-23T13:14:50.977Z,37.50
2019-03-23T13:17:22.824Z,37.20
2019-03-23T13:19:54.076Z,37.00
2019-03-23T13:22:24.408Z,37.00
2019-03-23T13:24:55.979Z,36.90
2019-03-23T13:27:32.217Z,36.50
2019-03-23T13:30:05.660Z,36.20
2019-03-23T13:32:39.591Z,36.10
2019-03-23T13:35:14.251Z,36.30
2019-03-23T13:37:54.775Z,36.10
2019-03-23T13:40:25.904Z,36.00
2019-03-23T13:42:58.062Z,35.90
2019-03-23T13:45:29.123Z,35.60
2019-03-23T13:48:08.117Z,35.40
2019-03-23T13:50:38.733Z,35.10
2019-03-23T13:53:08.697Z,34.60
2019-03-23T13:55:38.818Z,34.60
2019-03-23T13:58:12.959Z,34.70
2019-03-23T14:00:43.049Z,34.90
2019-03-23T14:03:13.019Z,34.90
2019-03-23T14:05:42.939Z,34.60
2019-03-23T14:08:12.913Z,34.30
2019-03-23T14:10:43.055Z,34.20
2019-03-23T14:13:13.937Z,34.20
2019-03-23T14:15:43.862Z,34.10
2019-03-23T14:18:13.756Z,34.10
2019-03-23T14:20:45.234Z,34.10
2019-03-23T14:23:15.408Z,34.40
2019-03-23T14:25:45.629Z,34.70
2019-03-23T14:28:17.580Z,34.70
2019-03-23T14:30:47.887Z,34.40
2019-03-23T14:33:18.043Z,34.20
2019-03-23T14:35:48.262Z,34.10
2019-03-23T14:38:18.660Z,33.90
2019-03-23T14:40:48.599Z,33.90
2019-03-23T14:43:18.487Z,33.50
2019-03-23T14:45:48.360Z,32.90
2019-03-23T14:48:18.226Z,32.10
2019-03-23T14:50:48.114Z,31.00
2019-03-23T14:53:20.638Z,29.90
2019-03-23T14:55:50.539Z,28.90
2019-03-23T14:58:20.382Z,28.00
2019-03-23T15:00:50.210Z,27.40
2019-03-23T15:03:22.794Z,27.00
2019-03-23T15:05:52.652Z,26.70
2019-03-23T15:08:22.604Z,26.30
2019-03-23T15:10:53.655Z,25.90
2019-03-23T15:13:23.653Z,25.60
2019-03-23T15:15:53.501Z,25.30
2019-03-23T15:18:23.390Z,24.90
2019-03-23T15:20:53.215Z,24.50
2019-03-23T15:23:23.200Z,24.30
2019-03-23T15:25:53.103Z,24.00
2019-03-23T15:28:22.988Z,23.90
2019-03-23T15:30:52.901Z,23.60
2019-03-23T15:33:22.851Z,23.30
2019-03-23T15:35:52.701Z,23.20
2019-03-23T15:38:22.614Z,23.00
2019-03-23T15:40:52.413Z,22.80
2019-03-23T15:43:22.422Z,22.80
2019-03-23T15:45:52.556Z,22.70
2019-03-23T15:48:22.602Z,22.60
2019-03-23T15:50:52.665Z,22.50
2019-03-23T15:53:27.855Z,22.40
2019-03-23T15:55:57.632Z,22.40
2019-03-23T15:58:27.662Z,22.30
2019-03-23T16:00:57.704Z,22.40
2019-03-23T16:03:27.560Z,22.40
2019-03-23T16:05:57.484Z,22.30
2019-03-23T16:08:27.317Z,22.20
2019-03-23T16:10:57.191Z,22.10
2019-03-23T16:13:27.225Z,22.20
2019-03-23T16:15:57.116Z,22.50
2019-03-23T16:18:26.997Z,22.80
2019-03-23T16:20:56.868Z,23.10
2019-03-23T16:23:26.720Z,23.30
2019-03-23T16:25:56.663Z,23.40
2019-03-23T16:28:26.600Z,23.50
2019-03-23T16:30:57.156Z,23.60
2019-03-23T16:33:27.076Z,23.70
2019-03-23T16:35:57.078Z,23.60
2019-03-23T16:38:27.008Z,23.50
2019-03-23T16:40:56.775Z,23.30
2019-03-23T16:43:26.663Z,23.10
2019-03-23T16:45:57.004Z,22.90
2019-03-23T16:48:28.893Z,22.70
2019-03-23T16:50:58.819Z,22.40
2019-03-23T16:53:28.646Z,22.20
2019-03-23T16:55:58.541Z,21.90
2019-03-23T16:58:28.523Z,21.60
2019-03-23T17:01:00.226Z,21.30
2019-03-23T17:03:30.199Z,21.10
2019-03-23T17:06:00.227Z,20.80
2019-03-23T17:08:30.147Z,20.50
2019-03-23T17:11:00.117Z,20.20
2019-03-23T17:13:29.931Z,19.80
2019-03-23T17:16:00.079Z,19.50
2019-03-23T17:18:30.207Z,19.30
2019-03-23T17:21:00.314Z,19.10
2019-03-23T17:23:42.063Z,18.90
2019-03-23T17:26:12.207Z,18.70
2019-03-23T17:28:42.439Z,18.50
2019-03-23T17:31:12.759Z,18.30
2019-03-23T17:33:43.149Z,18.10
2019-03-23T17:36:13.409Z,18.00
2019-03-23T17:38:43.434Z,17.80
2019-03-23T17:41:21.406Z,17.60
2019-03-23T17:43:52.860Z,17.50
2019-03-23T17:46:27.812Z,17.30
2019-03-23T17:48:58.029Z,17.20
2019-03-23T17:51:28.344Z,17.10
2019-03-23T17:53:59.099Z,17.00
2019-03-23T17:56:29.952Z,16.90
2019-03-23T17:59:01.598Z,16.80
2019-03-23T18:01:34.802Z,16.60
2019-03-23T18:04:09.557Z,16.50
2019-03-23T18:06:40.174Z,16.40
2019-03-23T18:09:10.697Z,16.30
2019-03-23T18:11:40.817Z,16.30
2019-03-23T18:14:12.724Z,16.20
2019-03-23T18:16:45.845Z,16.10
2019-03-23T18:19:22.716Z,16.10
2019-03-23T18:21:53.184Z,16.00
2019-03-23T18:24:44.502Z,15.90
2019-03-23T18:27:14.596Z,15.90
2019-03-23T18:29:47.592Z,15.80
2019-03-23T18:32:22.319Z,15.70
2019-03-23T18:34:57.332Z,15.40
2019-03-23T18:37:28.113Z,15.50
2019-03-23T18:39:58.781Z,15.40
2019-03-23T18:42:29.517Z,15.30
2019-03-23T18:45:02.455Z,15.20
2019-03-23T18:47:40.369Z,15.10
2019-03-23T18:50:12.935Z,15.00
2019-03-23T18:52:43.186Z,14.90
2019-03-23T18:55:19.812Z,14.80
2019-03-23T18:57:52.935Z,14.80
2019-03-23T19:00:36.295Z,14.70
2019-03-23T19:03:07.105Z,14.60
2019-03-23T19:05:42.265Z,14.60
2019-03-23T19:08:13.332Z,14.50
2019-03-23T19:10:47.635Z,14.40
2019-03-23T19:13:19.887Z,14.30
2019-03-23T19:15:51.593Z,14.30
2019-03-23T19:18:22.520Z,14.20
2019-03-23T19:20:54.227Z,14.20
2019-03-23T19:23:26.193Z,14.10
2019-03-23T19:25:56.745Z,14.10
2019-03-23T19:28:33.482Z,14.00
2019-03-23T19:31:09.343Z,14.00
2019-03-23T19:33:39.622Z,14.00
2019-03-23T19:36:09.527Z,13.90
2019-03-23T19:38:42.512Z,13.90
2019-03-23T19:41:28.731Z,13.80
2019-03-23T19:43:59.185Z,13.80
2019-03-23T19:46:29.640Z,13.70
2019-03-23T19:49:01.645Z,13.70
2019-03-23T19:51:34.508Z,13.60
2019-03-23T19:54:07.944Z,13.50
2019-03-23T19:56:44.210Z,13.50
2019-03-23T19:59:14.367Z,13.50
2019-03-23T20:02:15.578Z,13.40
2019-03-23T20:04:46.618Z,13.40
2019-03-23T20:07:18.237Z,13.30
2019-03-23T20:09:48.394Z,13.20
2019-03-23T20:12:25.757Z,13.10
2019-03-23T20:15:38.095Z,13.10
2019-03-23T20:18:19.798Z,13.10
2019-03-23T20:21:40.065Z,13.00
2019-03-23T20:24:14.339Z,12.90
2019-03-23T20:27:30.444Z,12.80
2019-03-23T20:30:01.999Z,12.70
2019-03-23T20:32:45.493Z,12.70
2019-03-23T20:35:16.353Z,12.60
2019-03-23T20:37:46.573Z,12.50
2019-03-23T20:40:16.795Z,12.50
2019-03-23T20:42:58.475Z,12.40
2019-03-23T20:45:32.443Z,12.40
2019-03-23T20:48:03.347Z,12.40
2019-03-23T20:50:40.354Z,12.30
2019-03-23T20:53:13.982Z,12.30
2019-03-23T20:55:46.071Z,12.30
2019-03-23T20:58:20.767Z,12.30
2019-03-23T21:00:55.007Z,12.20
2019-03-23T21:03:25.184Z,12.20
2019-03-23T21:05:55.197Z,12.20
2019-03-23T21:08:25.279Z,12.10
2019-03-23T21:10:59.231Z,12.10
2019-03-23T21:13:29.203Z,12.10
2019-03-23T21:15:59.272Z,12.00
2019-03-23T21:18:29.173Z,12.00
2019-03-23T21:20:59.183Z,12.00
2019-03-23T21:23:29.245Z,11.90
2019-03-23T21:26:00.580Z,11.90
2019-03-23T21:28:30.946Z,11.90
2019-03-23T21:31:01.050Z,11.90
2019-03-23T21:33:32.139Z,11.80
2019-03-23T21:36:03.172Z,11.80
2019-03-23T21:38:33.422Z,11.80
2019-03-23T21:41:03.408Z,11.80
2019-03-23T21:43:37.448Z,11.80
2019-03-23T21:46:11.206Z,11.80
2019-03-23T21:48:41.474Z,11.80
2019-03-23T21:51:11.657Z,11.90
2019-03-23T21:53:41.653Z,11.90
2019-03-23T21:56:11.508Z,11.90
2019-03-23T21:58:43.078Z,12.00
2019-03-23T22:01:13.034Z,12.10
2019-03-23T22:03:42.854Z,12.10
2019-03-23T22:06:12.808Z,12.20
2019-03-23T22:08:42.742Z,12.20
2019-03-23T22:11:12.579Z,12.20
2019-03-23T22:13:42.479Z,12.20
2019-03-23T22:16:12.475Z,12.20
2019-03-23T22:18:42.350Z,12.20
2019-03-23T22:21:12.229Z,12.20
2019-03-23T22:24:03.902Z,12.20
2019-03-23T22:26:50.601Z,12.30
2019-03-23T22:29:51.003Z,12.20
2019-03-23T22:32:20.932Z,12.20
2019-03-23T22:34:50.949Z,12.30
2019-03-23T22:37:20.944Z,12.30
2019-03-23T22:39:51.021Z,12.30
2019-03-23T22:42:21.167Z,12.20
2019-03-23T22:44:52.644Z,12.20
2019-03-23T22:47:23.072Z,12.20
2019-03-23T22:49:52.962Z,12.00
2019-03-23T22:52:22.905Z,12.00
2019-03-23T22:54:54.171Z,12.00
2019-03-23T22:57:24.532Z,11.90
2019-03-23T23:01:27.344Z,11.80
2019-03-23T23:04:43.709Z,11.80
2019-03-23T23:08:08.216Z,11.80
2019-03-23T23:11:30.725Z,11.80
2019-03-23T23:14:43.692Z,11.80
2019-03-23T23:17:14.322Z,11.80
2019-03-23T23:19:44.813Z,11.80
2019-03-23T23:22:15.017Z,11.80
2019-03-23T23:24:45.375Z,11.80
2019-03-23T23:27:15.766Z,11.80
2019-03-23T23:29:45.983Z,11.80
2019-03-23T23:32:16.262Z,11.80
2019-03-23T23:34:46.381Z,11.90
2019-03-23T23:37:16.720Z,11.90
2019-03-23T23:39:47.686Z,11.90
2019-03-23T23:42:18.294Z,11.90
2019-03-23T23:49:59.834Z,11.90
2019-03-23T23:53:47.659Z,11.80
2019-03-23T23:56:54.431Z,11.70
